createdAt,value
2018-10-09T00:00:15.025Z,0
2018-10-09T00:00:55.679Z,0
2018-10-09T00:01:36.163Z,0
2018-10-09T00:02:16.714Z,0
2018-10-09T00:02:57.297Z,0
2018-10-09T00:03:37.863Z,0
2018-10-09T00:04:18.425Z,0
2018-10-09T00:04:58.991Z,0
2018-10-09T00:05:39.556Z,0
2018-10-09T00:06:20.126Z,0
2018-10-09T00:07:00.698Z,0
2018-10-09T00:07:41.253Z,0
2018-10-09T00:08:21.819Z,0
2018-10-09T00:09:02.369Z,0
2018-10-09T00:09:42.931Z,0
2018-10-09T00:10:23.489Z,0
2018-10-09T00:11:04.045Z,0
2018-10-09T00:11:44.605Z,0
2018-10-09T00:12:25.196Z,0
2018-10-09T00:13:05.762Z,0
2018-10-09T00:13:46.344Z,0
2018-10-09T00:14:26.916Z,0
2018-10-09T00:15:07.494Z,0
2018-10-09T00:15:48.045Z,0
2018-10-09T00:16:28.600Z,0
2018-10-09T00:17:09.164Z,0
2018-10-09T00:17:49.754Z,0
2018-10-09T00:18:30.297Z,0
2018-10-09T00:19:10.851Z,0
2018-10-09T00:19:51.411Z,0
2018-10-09T00:20:31.959Z,0
2018-10-09T00:21:12.510Z,0
2018-10-09T00:21:53.068Z,0
2018-10-09T00:22:33.632Z,0
2018-10-09T00:23:14.191Z,0
2018-10-09T00:23:54.756Z,0
2018-10-09T00:24:35.351Z,0
2018-10-09T00:25:15.908Z,0
2018-10-09T00:25:56.544Z,0
2018-10-09T00:26:37.072Z,0
2018-10-09T00:27:17.653Z,0
2018-10-09T00:27:58.189Z,0
2018-10-09T00:28:38.775Z,0
2018-10-09T00:29:19.351Z,0
2018-10-09T00:29:59.911Z,0
2018-10-09T00:30:40.475Z,0
2018-10-09T00:31:21.036Z,0
2018-10-09T00:32:01.611Z,0
2018-10-09T00:32:42.168Z,0
2018-10-09T00:33:22.728Z,0
2018-10-09T00:34:03.307Z,0
2018-10-09T00:34:43.851Z,0
2018-10-09T00:35:24.392Z,0
2018-10-09T00:36:04.947Z,0
2018-10-09T00:36:45.523Z,0
2018-10-09T00:37:26.071Z,0
2018-10-09T00:38:06.637Z,0
2018-10-09T00:38:47.219Z,0
2018-10-09T00:39:27.764Z,0
2018-10-09T00:40:08.322Z,0
2018-10-09T00:40:48.902Z,0
2018-10-09T00:41:29.465Z,0
2018-10-09T00:42:10.030Z,0
2018-10-09T00:42:50.598Z,0
2018-10-09T00:43:31.189Z,0
2018-10-09T00:44:11.745Z,0
2018-10-09T00:44:52.334Z,0
2018-10-09T00:45:32.888Z,0
2018-10-09T00:46:13.462Z,0
2018-10-09T00:46:54.086Z,0
2018-10-09T00:47:34.632Z,0
2018-10-09T00:48:15.204Z,0
2018-10-09T00:48:55.755Z,0
2018-10-09T00:49:36.338Z,0
2018-10-09T00:50:16.885Z,0
2018-10-09T00:50:57.444Z,0
2018-10-09T00:51:37.999Z,0
2018-10-09T00:52:18.615Z,0
2018-10-09T00:52:59.182Z,0
2018-10-09T00:53:39.746Z,0
2018-10-09T00:54:20.300Z,0
2018-10-09T00:55:00.862Z,0
2018-10-09T00:55:41.408Z,0
2018-10-09T00:56:21.954Z,0
2018-10-09T00:57:02.530Z,0
2018-10-09T00:57:43.086Z,0
2018-10-09T00:58:23.644Z,0
2018-10-09T00:59:04.214Z,0
2018-10-09T00:59:44.773Z,0
2018-10-09T01:00:25.334Z,0
2018-10-09T01:01:05.876Z,0
2018-10-09T01:01:46.450Z,0
2018-10-09T01:02:27.055Z,0
2018-10-09T01:03:07.613Z,0
2018-10-09T01:03:48.168Z,0
2018-10-09T01:04:28.722Z,0
2018-10-09T01:05:09.303Z,0
2018-10-09T01:05:49.864Z,0
2018-10-09T01:06:30.412Z,0
2018-10-09T01:07:10.964Z,0
2018-10-09T01:07:51.536Z,0
2018-10-09T01:08:32.091Z,0
2018-10-09T01:09:12.689Z,0
2018-10-09T01:09:53.194Z,0
2018-10-09T01:10:33.754Z,0
2018-10-09T01:11:14.317Z,0
2018-10-09T01:11:54.867Z,0
2018-10-09T01:12:35.419Z,0
2018-10-09T01:13:15.968Z,0
2018-10-09T01:13:56.514Z,0
2018-10-09T01:14:37.062Z,0
2018-10-09T01:15:17.625Z,0
2018-10-09T01:15:58.194Z,0
2018-10-09T01:16:38.754Z,0
2018-10-09T01:17:19.440Z,0
2018-10-09T01:18:00.004Z,0
2018-10-09T01:18:40.563Z,0
2018-10-09T01:19:21.119Z,0
2018-10-09T01:20:01.686Z,0
2018-10-09T01:20:42.257Z,0
2018-10-09T01:21:22.813Z,0
2018-10-09T01:22:03.372Z,0
2018-10-09T01:22:43.935Z,0
2018-10-09T01:23:24.481Z,0
2018-10-09T01:24:05.039Z,0
2018-10-09T01:24:45.607Z,0
2018-10-09T01:25:26.163Z,0
2018-10-09T01:26:06.712Z,0
2018-10-09T01:26:47.279Z,0
2018-10-09T01:27:27.863Z,0
2018-10-09T01:28:08.409Z,0
2018-10-09T01:28:48.962Z,0
2018-10-09T01:29:29.517Z,0
2018-10-09T01:30:10.081Z,0
2018-10-09T01:30:50.643Z,0
2018-10-09T01:31:31.210Z,0
2018-10-09T01:32:11.776Z,0
2018-10-09T01:32:52.333Z,0
2018-10-09T01:33:32.873Z,0
2018-10-09T01:34:13.439Z,0
2018-10-09T01:34:53.995Z,0
2018-10-09T01:35:34.547Z,0
2018-10-09T01:36:15.107Z,0
2018-10-09T01:36:55.676Z,0
2018-10-09T01:37:36.248Z,0
2018-10-09T01:38:16.810Z,0
2018-10-09T01:38:57.385Z,0
2018-10-09T01:39:37.958Z,0
2018-10-09T01:40:18.531Z,0
2018-10-09T01:40:59.113Z,0
2018-10-09T01:41:39.672Z,0
2018-10-09T01:42:20.238Z,0
2018-10-09T01:43:00.798Z,0
2018-10-09T01:43:41.354Z,0
2018-10-09T01:44:21.910Z,0
2018-10-09T01:45:02.484Z,0
2018-10-09T01:45:43.055Z,0
2018-10-09T01:46:23.615Z,0
2018-10-09T01:47:04.170Z,0
2018-10-09T01:47:44.720Z,0
2018-10-09T01:48:25.302Z,0
2018-10-09T01:49:05.859Z,0
2018-10-09T01:49:46.415Z,0
2018-10-09T01:50:26.964Z,0
2018-10-09T01:51:07.519Z,0
2018-10-09T01:51:48.098Z,0
2018-10-09T01:52:28.768Z,0
2018-10-09T01:53:09.233Z,0
2018-10-09T01:53:49.822Z,0
2018-10-09T01:54:30.412Z,0
2018-10-09T01:55:10.957Z,0
2018-10-09T01:55:51.514Z,0
2018-10-09T01:56:32.085Z,0
2018-10-09T01:57:12.642Z,0
2018-10-09T01:57:53.213Z,0
2018-10-09T01:58:33.756Z,0
2018-10-09T01:59:14.311Z,0
2018-10-09T01:59:54.868Z,0
2018-10-09T02:00:35.436Z,0
2018-10-09T02:01:15.999Z,0
2018-10-09T02:01:56.564Z,0
2018-10-09T02:02:37.117Z,0
2018-10-09T02:03:17.682Z,0
2018-10-09T02:03:58.338Z,0
2018-10-09T02:04:38.918Z,0
2018-10-09T02:05:19.517Z,0
2018-10-09T02:06:00.077Z,0
2018-10-09T02:06:40.625Z,0
2018-10-09T02:07:21.189Z,0
2018-10-09T02:08:01.749Z,0
2018-10-09T02:08:42.326Z,0
2018-10-09T02:09:22.855Z,0
2018-10-09T02:10:03.411Z,0
2018-10-09T02:10:43.993Z,0
2018-10-09T02:11:24.564Z,0
2018-10-09T02:12:05.131Z,0
2018-10-09T02:12:45.696Z,0
2018-10-09T02:13:26.247Z,0
2018-10-09T02:14:06.804Z,0
2018-10-09T02:14:47.360Z,0
2018-10-09T02:15:27.921Z,0
2018-10-09T02:16:08.478Z,0
2018-10-09T02:16:49.040Z,0
2018-10-09T02:17:29.626Z,0
2018-10-09T02:18:10.185Z,0
2018-10-09T02:18:50.739Z,0
2018-10-09T02:19:31.297Z,0
2018-10-09T02:20:11.853Z,0
2018-10-09T02:20:52.411Z,0
2018-10-09T02:21:32.959Z,0
2018-10-09T02:22:13.515Z,0
2018-10-09T02:22:54.074Z,0
2018-10-09T02:23:34.632Z,0
2018-10-09T02:24:15.214Z,0
2018-10-09T02:24:55.761Z,0
2018-10-09T02:25:36.327Z,0
2018-10-09T02:26:16.883Z,0
2018-10-09T02:26:57.449Z,0
2018-10-09T02:27:38.015Z,0
2018-10-09T02:28:18.571Z,0
2018-10-09T02:28:59.120Z,0
2018-10-09T02:29:39.681Z,0
2018-10-09T02:30:20.246Z,0
2018-10-09T02:31:00.816Z,0
2018-10-09T02:31:41.378Z,0
2018-10-09T02:32:21.954Z,0
2018-10-09T02:33:02.508Z,0
2018-10-09T02:33:43.226Z,0
2018-10-09T02:34:23.633Z,0
2018-10-09T02:35:04.179Z,0
2018-10-09T02:35:44.732Z,0
2018-10-09T02:36:25.288Z,0
2018-10-09T02:37:05.852Z,0
2018-10-09T02:37:46.410Z,0
2018-10-09T02:38:26.989Z,0
2018-10-09T02:39:07.546Z,0
2018-10-09T02:39:48.104Z,0
2018-10-09T02:40:28.665Z,0
2018-10-09T02:41:09.231Z,0
2018-10-09T02:41:49.792Z,0
2018-10-09T02:42:30.347Z,0
2018-10-09T02:43:10.964Z,0
2018-10-09T02:43:51.520Z,0
2018-10-09T02:44:32.082Z,0
2018-10-09T02:45:12.641Z,0
2018-10-09T02:45:53.195Z,0
2018-10-09T02:46:33.745Z,0
2018-10-09T02:47:14.298Z,0
2018-10-09T02:47:54.864Z,0
2018-10-09T02:48:35.424Z,0
2018-10-09T02:49:15.979Z,0
2018-10-09T02:49:56.529Z,0
2018-10-09T02:50:37.089Z,0
2018-10-09T02:51:17.648Z,0
2018-10-09T02:51:58.207Z,0
2018-10-09T02:52:38.755Z,0
2018-10-09T02:53:19.317Z,0
2018-10-09T02:53:59.894Z,0
2018-10-09T02:54:40.445Z,0
2018-10-09T02:55:21.007Z,0
2018-10-09T02:56:01.560Z,0
2018-10-09T02:56:42.115Z,0
2018-10-09T02:57:22.676Z,0
2018-10-09T02:58:03.231Z,0
2018-10-09T02:58:43.778Z,0
2018-10-09T02:59:24.352Z,0
2018-10-09T03:00:04.938Z,0
2018-10-09T03:00:45.492Z,0
2018-10-09T03:01:26.111Z,0
2018-10-09T03:02:06.679Z,0
2018-10-09T03:02:47.244Z,0
2018-10-09T03:03:27.814Z,0
2018-10-09T03:04:08.393Z,0
2018-10-09T03:04:48.957Z,0
2018-10-09T03:05:29.529Z,0
2018-10-09T03:06:10.075Z,0
2018-10-09T03:06:50.648Z,0
2018-10-09T03:07:31.200Z,0
2018-10-09T03:08:11.771Z,0
2018-10-09T03:08:52.348Z,0
2018-10-09T03:09:32.898Z,0
2018-10-09T03:10:13.455Z,0
2018-10-09T03:10:54.012Z,0
2018-10-09T03:11:34.579Z,0
2018-10-09T03:12:15.133Z,0
2018-10-09T03:12:55.702Z,0
2018-10-09T03:13:36.256Z,0
2018-10-09T03:14:16.825Z,0
2018-10-09T03:14:57.380Z,0
2018-10-09T03:15:37.941Z,0
2018-10-09T03:16:18.537Z,0
2018-10-09T03:16:59.118Z,0
2018-10-09T03:17:39.670Z,0
2018-10-09T03:18:20.243Z,0
2018-10-09T03:19:00.810Z,0
2018-10-09T03:19:41.423Z,0
2018-10-09T03:20:21.998Z,0
2018-10-09T03:21:02.556Z,0
2018-10-09T03:21:43.115Z,0
2018-10-09T03:22:23.668Z,0
2018-10-09T03:23:04.266Z,0
2018-10-09T03:23:44.862Z,0
2018-10-09T03:24:25.487Z,0
2018-10-09T03:25:06.049Z,0
2018-10-09T03:25:46.598Z,0
2018-10-09T03:26:27.168Z,0
2018-10-09T03:27:07.719Z,0
2018-10-09T03:27:48.274Z,0
2018-10-09T03:28:28.838Z,0
2018-10-09T03:29:09.427Z,0
2018-10-09T03:29:49.978Z,0
2018-10-09T03:30:30.537Z,0
2018-10-09T03:31:11.101Z,0
2018-10-09T03:31:51.670Z,0
2018-10-09T03:32:32.208Z,0
2018-10-09T03:33:12.770Z,0
2018-10-09T03:33:53.338Z,0
2018-10-09T03:34:33.911Z,0
2018-10-09T03:35:14.476Z,0
2018-10-09T03:35:55.062Z,0
2018-10-09T03:36:35.623Z,0
2018-10-09T03:37:16.171Z,0
2018-10-09T03:37:56.722Z,0
2018-10-09T03:38:37.279Z,0
2018-10-09T03:39:17.830Z,0
2018-10-09T03:39:58.398Z,0
2018-10-09T03:40:38.957Z,0
2018-10-09T03:41:19.500Z,0
2018-10-09T03:42:00.054Z,0
2018-10-09T03:42:40.612Z,0
2018-10-09T03:43:21.209Z,0
2018-10-09T03:44:01.762Z,0
2018-10-09T03:44:42.337Z,0
2018-10-09T03:45:22.894Z,0
2018-10-09T03:46:03.438Z,0
2018-10-09T03:46:44.013Z,0
2018-10-09T03:47:24.568Z,0
2018-10-09T03:48:05.145Z,0
2018-10-09T03:48:45.710Z,0
2018-10-09T03:49:26.283Z,0
2018-10-09T03:50:06.851Z,0
2018-10-09T03:50:47.467Z,0
2018-10-09T03:51:28.037Z,0
2018-10-09T03:52:08.614Z,0
2018-10-09T03:52:49.175Z,0
2018-10-09T03:53:29.744Z,0
2018-10-09T03:54:10.294Z,0
2018-10-09T03:54:50.858Z,0
2018-10-09T03:55:31.420Z,0
2018-10-09T03:56:11.997Z,0
2018-10-09T03:56:52.544Z,0
2018-10-09T03:57:33.123Z,0
2018-10-09T03:58:13.715Z,0
2018-10-09T03:58:54.260Z,0
2018-10-09T03:59:34.832Z,0
2018-10-09T04:00:15.435Z,0
2018-10-09T04:00:56.005Z,0
2018-10-09T04:01:36.567Z,0
2018-10-09T04:02:17.107Z,0
2018-10-09T04:02:57.683Z,0
2018-10-09T04:03:38.227Z,0
2018-10-09T04:04:18.778Z,0
2018-10-09T04:04:59.352Z,0
2018-10-09T04:05:39.910Z,0
2018-10-09T04:06:20.459Z,0
2018-10-09T04:07:01.026Z,0
2018-10-09T04:07:41.583Z,0
2018-10-09T04:08:22.166Z,0
2018-10-09T04:09:02.805Z,0
2018-10-09T04:09:43.311Z,0
2018-10-09T04:10:23.858Z,0
2018-10-09T04:11:04.456Z,0
2018-10-09T04:11:45.016Z,0
2018-10-09T04:12:25.587Z,0
2018-10-09T04:13:06.324Z,0
2018-10-09T04:13:46.928Z,0
2018-10-09T04:14:27.572Z,0
2018-10-09T04:15:08.080Z,0
2018-10-09T04:15:48.660Z,0
2018-10-09T04:16:29.209Z,0
2018-10-09T04:17:09.762Z,0
2018-10-09T04:17:50.348Z,0
2018-10-09T04:18:30.933Z,0
2018-10-09T04:19:11.506Z,0
2018-10-09T04:19:52.069Z,0
2018-10-09T04:20:32.623Z,0
2018-10-09T04:21:13.190Z,0
2018-10-09T04:21:53.767Z,0
2018-10-09T04:22:34.334Z,0
2018-10-09T04:23:14.905Z,0
2018-10-09T04:23:55.473Z,0
2018-10-09T04:24:36.041Z,0
2018-10-09T04:25:16.598Z,0
2018-10-09T04:25:57.144Z,0
2018-10-09T04:26:37.715Z,0
2018-10-09T04:27:18.261Z,0
2018-10-09T04:27:58.818Z,0
2018-10-09T04:28:39.374Z,0
2018-10-09T04:29:19.965Z,0
2018-10-09T04:30:00.499Z,0
2018-10-09T04:30:41.058Z,0
2018-10-09T04:31:21.636Z,0
2018-10-09T04:32:02.183Z,0
2018-10-09T04:32:42.738Z,0
2018-10-09T04:33:23.301Z,0
2018-10-09T04:34:03.893Z,0
2018-10-09T04:34:44.443Z,0
2018-10-09T04:35:25.052Z,0
2018-10-09T04:36:05.545Z,0
2018-10-09T04:36:46.116Z,0
2018-10-09T04:37:26.666Z,0
2018-10-09T04:38:07.308Z,0
2018-10-09T04:38:47.873Z,0
2018-10-09T04:39:28.521Z,0
2018-10-09T04:40:09.098Z,0
2018-10-09T04:40:49.660Z,0
2018-10-09T04:41:30.216Z,0
2018-10-09T04:42:10.796Z,0
2018-10-09T04:42:51.359Z,0
2018-10-09T04:43:34.605Z,0
2018-10-09T04:44:14.519Z,0
2018-10-09T04:44:55.320Z,0
2018-10-09T04:45:43.820Z,0
2018-10-09T04:46:24.377Z,0
2018-10-09T04:47:04.934Z,0
2018-10-09T04:47:46.166Z,0
2018-10-09T04:48:26.749Z,0
2018-10-09T04:49:07.298Z,0
2018-10-09T04:49:48.183Z,0
2018-10-09T04:50:29.144Z,0
2018-10-09T04:51:10.057Z,0
2018-10-09T04:51:50.674Z,0
2018-10-09T04:52:31.210Z,0
2018-10-09T04:53:11.897Z,0
2018-10-09T04:53:52.397Z,0
2018-10-09T04:54:32.945Z,0
2018-10-09T04:55:13.654Z,0
2018-10-09T04:55:54.482Z,0
2018-10-09T04:56:35.276Z,0
2018-10-09T04:57:16.334Z,0
2018-10-09T04:57:57.712Z,0
2018-10-09T04:58:38.412Z,0
2018-10-09T04:59:19.003Z,0
2018-10-09T04:59:59.571Z,0
2018-10-09T05:00:40.128Z,0
2018-10-09T05:01:20.678Z,0
2018-10-09T05:02:01.248Z,0
2018-10-09T05:02:41.812Z,0
2018-10-09T05:03:22.361Z,0
2018-10-09T05:04:02.916Z,0
2018-10-09T05:04:43.479Z,0
2018-10-09T05:05:24.077Z,0
2018-10-09T05:06:04.637Z,0
2018-10-09T05:06:45.195Z,0
2018-10-09T05:07:25.750Z,0
2018-10-09T05:08:06.302Z,0
2018-10-09T05:08:46.863Z,0
2018-10-09T05:09:27.592Z,0
2018-10-09T05:10:08.151Z,0
2018-10-09T05:10:48.710Z,0
2018-10-09T05:11:29.271Z,0
2018-10-09T05:12:09.832Z,0
2018-10-09T05:12:50.375Z,0
2018-10-09T05:13:30.934Z,0
2018-10-09T05:14:11.504Z,0
2018-10-09T05:14:52.055Z,0
2018-10-09T05:15:32.618Z,0
2018-10-09T05:16:13.168Z,0
2018-10-09T05:16:53.717Z,0
2018-10-09T05:17:34.323Z,0
2018-10-09T05:18:14.835Z,0
2018-10-09T05:18:55.407Z,0
2018-10-09T05:19:35.959Z,0
2018-10-09T05:20:16.508Z,0
2018-10-09T05:20:57.083Z,0
2018-10-09T05:21:37.652Z,0
2018-10-09T05:22:18.231Z,0
2018-10-09T05:22:58.798Z,0
2018-10-09T05:23:39.356Z,0
2018-10-09T05:24:19.907Z,0
2018-10-09T05:25:00.472Z,0
2018-10-09T05:25:41.043Z,5
2018-10-09T05:26:21.592Z,5
2018-10-09T05:27:02.166Z,5
2018-10-09T05:27:42.720Z,5
2018-10-09T05:28:23.266Z,5
2018-10-09T05:29:03.825Z,5
2018-10-09T05:29:44.472Z,5
2018-10-09T05:30:25.166Z,5
2018-10-09T05:31:05.926Z,5
2018-10-09T05:31:46.383Z,10
2018-10-09T05:32:26.948Z,10
2018-10-09T05:33:07.498Z,10
2018-10-09T05:33:48.107Z,10
2018-10-09T05:34:28.659Z,10
2018-10-09T05:35:09.243Z,10
2018-10-09T05:35:49.787Z,10
2018-10-09T05:36:30.388Z,10
2018-10-09T05:37:10.936Z,15
2018-10-09T05:37:51.612Z,15
2018-10-09T05:38:32.066Z,15
2018-10-09T05:39:12.619Z,15
2018-10-09T05:39:53.181Z,15
2018-10-09T05:40:33.818Z,15
2018-10-09T05:41:14.369Z,15
2018-10-09T05:41:54.937Z,15
2018-10-09T05:42:35.510Z,15
2018-10-09T05:43:16.082Z,20
2018-10-09T05:43:58.092Z,20
2018-10-09T05:44:39.548Z,20
2018-10-09T05:45:20.084Z,20
2018-10-09T05:46:01.354Z,25
2018-10-09T05:46:41.920Z,25
2018-10-09T05:47:22.585Z,25
2018-10-09T05:48:03.156Z,25
2018-10-09T05:48:43.706Z,25
2018-10-09T05:49:24.273Z,30
2018-10-09T05:50:05.104Z,30
2018-10-09T05:50:45.409Z,30
2018-10-09T05:51:26.079Z,30
2018-10-09T05:52:06.961Z,30
2018-10-09T05:52:47.713Z,30
2018-10-09T05:53:28.912Z,30
2018-10-09T05:54:09.489Z,30
2018-10-09T05:54:50.857Z,30
2018-10-09T05:55:31.473Z,30
2018-10-09T05:56:12.026Z,30
2018-10-09T05:56:52.609Z,30
2018-10-09T05:57:33.185Z,30
2018-10-09T05:58:13.752Z,30
2018-10-09T05:58:54.303Z,30
2018-10-09T05:59:34.892Z,30
2018-10-09T06:00:15.506Z,30
2018-10-09T06:00:56.104Z,30
2018-10-09T06:01:36.658Z,30
2018-10-09T06:02:17.237Z,35
2018-10-09T06:02:57.794Z,35
2018-10-09T06:03:38.401Z,35
2018-10-09T06:04:18.962Z,35
2018-10-09T06:04:59.511Z,35
2018-10-09T06:05:40.178Z,35
2018-10-09T06:06:20.722Z,35
2018-10-09T06:07:01.311Z,35
2018-10-09T06:07:41.878Z,35
2018-10-09T06:08:22.515Z,35
2018-10-09T06:09:03.062Z,35
2018-10-09T06:09:43.622Z,35
2018-10-09T06:10:24.207Z,40
2018-10-09T06:11:04.779Z,35
2018-10-09T06:11:45.325Z,35
2018-10-09T06:12:25.935Z,40
2018-10-09T06:13:06.498Z,45
2018-10-09T06:13:47.076Z,45
2018-10-09T06:14:27.702Z,45
2018-10-09T06:15:08.251Z,45
2018-10-09T06:15:48.857Z,45
2018-10-09T06:16:29.381Z,45
2018-10-09T06:17:09.933Z,45
2018-10-09T06:17:50.497Z,45
2018-10-09T06:18:31.053Z,50
2018-10-09T06:19:11.711Z,50
2018-10-09T06:19:52.259Z,45
2018-10-09T06:20:33.090Z,50
2018-10-09T06:21:13.676Z,55
2018-10-09T06:21:54.266Z,60
2018-10-09T06:22:35.177Z,60
2018-10-09T06:23:15.860Z,60
2018-10-09T06:23:56.415Z,55
2018-10-09T06:24:36.978Z,55
2018-10-09T06:25:17.538Z,55
2018-10-09T06:25:58.116Z,55
2018-10-09T06:26:38.687Z,55
2018-10-09T06:27:19.308Z,55
2018-10-09T06:27:59.947Z,55
2018-10-09T06:28:40.441Z,55
2018-10-09T06:29:21.021Z,55
2018-10-09T06:30:01.569Z,55
2018-10-09T06:30:42.145Z,60
2018-10-09T06:31:22.916Z,60
2018-10-09T06:32:03.477Z,65
2018-10-09T06:32:44.077Z,70
2018-10-09T06:33:24.674Z,75
2018-10-09T06:34:05.358Z,85
2018-10-09T06:34:45.837Z,90
2018-10-09T06:35:26.391Z,90
2018-10-09T06:36:06.956Z,90
2018-10-09T06:36:47.543Z,90
2018-10-09T06:37:28.176Z,85
2018-10-09T06:38:08.741Z,85
2018-10-09T06:38:49.307Z,85
2018-10-09T06:39:29.890Z,90
2018-10-09T06:40:10.452Z,95
2018-10-09T06:40:51.030Z,100
2018-10-09T06:41:31.610Z,100
2018-10-09T06:42:12.164Z,95
2018-10-09T06:42:52.899Z,95
2018-10-09T06:43:33.350Z,95
2018-10-09T06:44:13.926Z,95
2018-10-09T06:44:54.465Z,95
2018-10-09T06:45:35.065Z,95
2018-10-09T06:46:15.616Z,95
2018-10-09T06:46:56.162Z,95
2018-10-09T06:47:36.792Z,100
2018-10-09T06:48:17.300Z,105
2018-10-09T06:48:57.868Z,105
2018-10-09T06:49:38.433Z,105
2018-10-09T06:50:19.002Z,105
2018-10-09T06:50:59.562Z,110
2018-10-09T06:51:40.164Z,110
2018-10-09T06:52:20.759Z,115
2018-10-09T06:53:01.346Z,120
2018-10-09T06:53:42.588Z,125
2018-10-09T06:54:23.108Z,130
2018-10-09T06:55:03.638Z,135
2018-10-09T06:55:44.192Z,135
2018-10-09T06:56:24.764Z,135
2018-10-09T06:57:05.299Z,130
2018-10-09T06:57:45.850Z,125
2018-10-09T06:58:26.531Z,125
2018-10-09T06:59:07.137Z,125
2018-10-09T06:59:47.726Z,120
2018-10-09T07:00:28.284Z,120
2018-10-09T07:01:08.842Z,120
2018-10-09T07:01:49.409Z,115
2018-10-09T07:02:29.979Z,110
2018-10-09T07:03:10.615Z,105
2018-10-09T07:03:51.215Z,105
2018-10-09T07:04:32.022Z,100
2018-10-09T07:05:12.569Z,100
2018-10-09T07:05:53.180Z,100
2018-10-09T07:06:33.768Z,100
2018-10-09T07:07:14.359Z,100
2018-10-09T07:07:54.969Z,95
2018-10-09T07:08:35.500Z,90
2018-10-09T07:09:16.077Z,95
2018-10-09T07:09:56.638Z,95
2018-10-09T07:10:38.581Z,95
2018-10-09T07:11:19.313Z,95
2018-10-09T07:11:59.740Z,95
2018-10-09T07:12:40.371Z,100
2018-10-09T07:13:21.001Z,100
2018-10-09T07:14:01.593Z,100
2018-10-09T07:14:42.155Z,105
2018-10-09T07:15:22.764Z,105
2018-10-09T07:16:03.311Z,110
2018-10-09T07:16:43.892Z,110
2018-10-09T07:17:24.453Z,115
2018-10-09T07:18:04.999Z,115
2018-10-09T07:18:45.555Z,120
2018-10-09T07:19:26.114Z,120
2018-10-09T07:20:06.672Z,125
2018-10-09T07:20:47.252Z,135
2018-10-09T07:21:27.859Z,135
2018-10-09T07:22:08.394Z,150
2018-10-09T07:22:48.984Z,180
2018-10-09T07:23:29.565Z,215
2018-10-09T07:24:10.146Z,250
2018-10-09T07:24:50.781Z,290
2018-10-09T07:25:31.315Z,335
2018-10-09T07:26:11.862Z,375
2018-10-09T07:26:52.430Z,415
2018-10-09T07:27:32.978Z,490
2018-10-09T07:28:13.563Z,615
2018-10-09T07:28:54.113Z,725
2018-10-09T07:29:34.685Z,765
2018-10-09T07:30:15.469Z,715
2018-10-09T07:30:56.115Z,545
2018-10-09T07:31:36.698Z,490
2018-10-09T07:32:17.245Z,410
2018-10-09T07:32:57.797Z,300
2018-10-09T07:33:38.407Z,255
2018-10-09T07:34:18.995Z,280
2018-10-09T07:34:59.551Z,335
2018-10-09T07:35:40.108Z,360
2018-10-09T07:36:20.685Z,405
2018-10-09T07:37:01.257Z,390
2018-10-09T07:37:41.903Z,365
2018-10-09T07:38:22.411Z,330
2018-10-09T07:39:02.951Z,245
2018-10-09T07:39:43.503Z,210
2018-10-09T07:40:24.064Z,215
2018-10-09T07:41:04.631Z,230
2018-10-09T07:41:45.203Z,280
2018-10-09T07:42:25.761Z,345
2018-10-09T07:43:06.329Z,315
2018-10-09T07:43:46.919Z,305
2018-10-09T07:44:27.451Z,305
2018-10-09T07:45:08.803Z,375
2018-10-09T07:45:49.332Z,415
2018-10-09T07:46:29.916Z,440
2018-10-09T07:47:10.482Z,515
2018-10-09T07:47:51.240Z,580
2018-10-09T07:48:31.829Z,605
2018-10-09T07:49:12.431Z,655
2018-10-09T07:49:53.107Z,675
2018-10-09T07:50:33.684Z,575
2018-10-09T07:51:14.279Z,535
2018-10-09T07:51:54.865Z,510
2018-10-09T07:52:35.582Z,480
2018-10-09T07:53:16.224Z,455
2018-10-09T07:53:57.366Z,445
2018-10-09T07:54:38.049Z,455
2018-10-09T07:55:18.843Z,435
2018-10-09T07:55:59.504Z,400
2018-10-09T07:56:40.089Z,365
2018-10-09T07:57:20.679Z,320
2018-10-09T07:58:01.270Z,300
2018-10-09T07:58:42.000Z,295
2018-10-09T07:59:22.559Z,265
2018-10-09T08:00:03.166Z,240
2018-10-09T08:00:43.730Z,230
2018-10-09T08:01:24.522Z,230
2018-10-09T08:02:05.347Z,240
2018-10-09T08:02:46.882Z,255
2018-10-09T08:03:27.757Z,270
2018-10-09T08:04:08.473Z,290
2018-10-09T08:04:49.285Z,265
2018-10-09T08:05:30.022Z,220
2018-10-09T08:06:10.718Z,205
2018-10-09T08:06:51.449Z,205
2018-10-09T08:07:32.252Z,220
2018-10-09T08:08:12.911Z,200
2018-10-09T08:08:53.627Z,170
2018-10-09T08:09:34.306Z,160
2018-10-09T08:10:15.209Z,160
2018-10-09T08:10:56.136Z,155
2018-10-09T08:11:36.793Z,165
2018-10-09T08:12:17.580Z,165
2018-10-09T08:12:58.325Z,170
2018-10-09T08:13:39.044Z,185
2018-10-09T08:14:19.966Z,195
2018-10-09T08:15:00.909Z,180
2018-10-09T08:15:42.094Z,170
2018-10-09T08:16:22.728Z,190
2018-10-09T08:17:03.251Z,190
2018-10-09T08:17:43.844Z,205
2018-10-09T08:18:24.428Z,240
2018-10-09T08:19:05.002Z,265
2018-10-09T08:19:45.588Z,265
2018-10-09T08:20:26.217Z,265
2018-10-09T08:21:06.807Z,260
2018-10-09T08:21:47.672Z,275
2018-10-09T08:22:28.543Z,300
2018-10-09T08:23:09.098Z,280
2018-10-09T08:23:49.689Z,270
2018-10-09T08:24:30.275Z,270
2018-10-09T08:25:10.854Z,265
2018-10-09T08:25:51.431Z,260
2018-10-09T08:26:32.064Z,270
2018-10-09T08:27:12.655Z,265
2018-10-09T08:27:53.265Z,255
2018-10-09T08:28:33.790Z,235
2018-10-09T08:29:14.366Z,230
2018-10-09T08:29:54.985Z,230
2018-10-09T08:30:35.561Z,220
2018-10-09T08:31:16.147Z,220
2018-10-09T08:31:56.719Z,215
2018-10-09T08:32:37.414Z,215
2018-10-09T08:33:17.993Z,225
2018-10-09T08:33:58.551Z,230
2018-10-09T08:34:39.178Z,235
2018-10-09T08:35:19.718Z,240
2018-10-09T08:36:00.285Z,250
2018-10-09T08:36:40.861Z,255
2018-10-09T08:37:21.470Z,240
2018-10-09T08:38:02.029Z,240
2018-10-09T08:38:42.604Z,240
2018-10-09T08:39:23.189Z,225
2018-10-09T08:40:03.867Z,220
2018-10-09T08:40:44.373Z,215
2018-10-09T08:41:25.078Z,220
2018-10-09T08:42:05.502Z,230
2018-10-09T08:42:46.074Z,225
2018-10-09T08:43:26.666Z,225
2018-10-09T08:44:07.350Z,220
2018-10-09T08:44:47.919Z,220
2018-10-09T08:45:28.463Z,215
2018-10-09T08:46:09.187Z,205
2018-10-09T08:46:49.816Z,205
2018-10-09T08:47:30.423Z,200
2018-10-09T08:48:11.019Z,205
2018-10-09T08:48:51.603Z,205
2018-10-09T08:49:32.154Z,200
2018-10-09T08:50:12.744Z,190
2018-10-09T08:50:53.322Z,185
2018-10-09T08:51:33.891Z,180
2018-10-09T08:52:14.468Z,180
2018-10-09T08:52:55.058Z,175
2018-10-09T08:53:35.615Z,175
2018-10-09T08:54:16.192Z,170
2018-10-09T08:54:57.091Z,165
2018-10-09T08:55:37.812Z,160
2018-10-09T08:56:18.647Z,155
2018-10-09T08:56:59.308Z,150
2018-10-09T08:57:40.332Z,150
2018-10-09T08:58:21.244Z,145
2018-10-09T08:59:02.946Z,145
2018-10-09T08:59:44.068Z,140
2018-10-09T09:00:24.775Z,140
2018-10-09T09:01:05.721Z,135
2018-10-09T09:01:46.381Z,135
2018-10-09T09:02:26.979Z,135
2018-10-09T09:03:07.551Z,130
2018-10-09T09:03:48.116Z,130
2018-10-09T09:04:28.710Z,125
2018-10-09T09:05:09.308Z,120
2018-10-09T09:05:49.933Z,120
2018-10-09T09:06:30.618Z,120
2018-10-09T09:07:11.186Z,115
2018-10-09T09:07:51.828Z,115
2018-10-09T09:08:32.507Z,115
2018-10-09T09:09:13.105Z,110
2018-10-09T09:09:53.677Z,110
2018-10-09T09:10:34.244Z,110
2018-10-09T09:11:14.888Z,110
2018-10-09T09:11:55.456Z,105
2018-10-09T09:12:36.016Z,105
2018-10-09T09:13:16.613Z,105
2018-10-09T09:13:57.236Z,100
2018-10-09T09:14:37.742Z,100
2018-10-09T09:15:18.364Z,100
2018-10-09T09:15:58.914Z,100
2018-10-09T09:16:39.535Z,100
2018-10-09T09:17:20.099Z,100
2018-10-09T09:18:00.700Z,100
2018-10-09T09:18:41.249Z,95
2018-10-09T09:19:21.847Z,95
2018-10-09T09:20:02.425Z,95
2018-10-09T09:20:43.189Z,95
2018-10-09T09:21:23.590Z,95
2018-10-09T09:22:04.159Z,95
2018-10-09T09:22:44.717Z,100
2018-10-09T09:23:25.267Z,100
2018-10-09T09:24:05.829Z,100
2018-10-09T09:24:46.408Z,100
2018-10-09T09:25:27.022Z,100
2018-10-09T09:26:07.645Z,100
2018-10-09T09:26:48.203Z,100
2018-10-09T09:27:28.773Z,100
2018-10-09T09:28:09.302Z,105
2018-10-09T09:28:49.901Z,105
2018-10-09T09:29:30.474Z,115
2018-10-09T09:30:11.021Z,120
2018-10-09T09:30:51.601Z,120
2018-10-09T09:31:32.160Z,125
2018-10-09T09:32:12.730Z,125
2018-10-09T09:32:53.304Z,125
2018-10-09T09:33:33.881Z,125
2018-10-09T09:34:14.455Z,130
2018-10-09T09:34:55.031Z,145
2018-10-09T09:35:35.630Z,135
2018-10-09T09:36:16.193Z,135
2018-10-09T09:36:56.754Z,135
2018-10-09T09:37:37.321Z,135
2018-10-09T09:38:17.879Z,135
2018-10-09T09:38:58.443Z,135
2018-10-09T09:39:39.031Z,135
2018-10-09T09:40:19.607Z,135
2018-10-09T09:41:00.232Z,140
2018-10-09T09:41:40.839Z,140
2018-10-09T09:42:21.427Z,140
2018-10-09T09:43:02.026Z,150
2018-10-09T09:43:43.481Z,150
2018-10-09T09:44:24.024Z,145
2018-10-09T09:45:04.656Z,135